createdAt,value
2019-05-13T00:01:28.289Z,8.71
2019-05-13T00:03:58.427Z,8.77
2019-05-13T00:06:28.509Z,8.77
2019-05-13T00:08:58.882Z,8.72
2019-05-13T00:11:29.492Z,8.68
2019-05-13T00:14:01.154Z,8.68
2019-05-13T00:16:31.356Z,8.66
2019-05-13T00:19:04.154Z,8.66
2019-05-13T00:21:34.973Z,8.57
2019-05-13T00:24:05.442Z,8.57
2019-05-13T00:26:35.913Z,8.54
2019-05-13T00:29:06.012Z,8.55
2019-05-13T00:31:36.141Z,8.55
2019-05-13T00:34:06.586Z,8.47
2019-05-13T00:36:36.595Z,8.47
2019-05-13T00:39:09.305Z,8.43
2019-05-13T00:41:39.698Z,8.24
2019-05-13T00:44:10.488Z,8.29
2019-05-13T00:46:41.195Z,8.29
2019-05-13T00:49:13.431Z,8.24
2019-05-13T00:51:44.674Z,8.26
2019-05-13T00:54:17.428Z,8.17
2019-05-13T00:56:47.600Z,8.17
2019-05-13T00:59:17.514Z,8.12
2019-05-13T01:01:47.389Z,8.05
2019-05-13T01:04:17.458Z,8.05
2019-05-13T01:06:47.480Z,8.01
2019-05-13T01:09:17.627Z,7.97
2019-05-13T01:11:47.567Z,7.91
2019-05-13T01:14:17.490Z,7.87
2019-05-13T01:16:48.340Z,7.82
2019-05-13T01:19:19.936Z,7.75
2019-05-13T01:21:53.847Z,7.66
2019-05-13T01:24:24.394Z,7.62
2019-05-13T01:26:55.608Z,7.60
2019-05-13T01:29:26.030Z,7.54
2019-05-13T01:31:56.212Z,7.49
2019-05-13T01:34:27.052Z,7.44
2019-05-13T01:37:00.012Z,7.38
2019-05-13T01:39:31.468Z,7.28
2019-05-13T01:42:03.456Z,7.23
2019-05-13T01:44:33.800Z,7.20
2019-05-13T01:47:04.679Z,7.14
2019-05-13T01:49:34.682Z,7.12
2019-05-13T01:52:05.689Z,7.08
2019-05-13T01:54:35.944Z,7.00
2019-05-13T01:57:05.887Z,6.96
2019-05-13T01:59:35.918Z,6.92
2019-05-13T02:02:06.576Z,6.93
2019-05-13T02:04:36.898Z,6.92
2019-05-13T02:07:08.582Z,6.87
2019-05-13T02:09:40.694Z,6.87
2019-05-13T02:12:13.415Z,6.83
2019-05-13T02:14:45.623Z,6.77
2019-05-13T02:17:15.914Z,6.73
2019-05-13T02:19:47.168Z,6.70
2019-05-13T02:22:17.172Z,6.68
2019-05-13T02:24:47.151Z,6.64
2019-05-13T02:27:17.164Z,6.61
2019-05-13T02:29:47.314Z,6.62
2019-05-13T02:32:17.304Z,6.59
2019-05-13T02:34:47.537Z,6.54
2019-05-13T02:37:17.959Z,6.54
2019-05-13T02:39:48.127Z,6.53
2019-05-13T02:42:18.305Z,6.50
2019-05-13T02:44:48.338Z,6.49
2019-05-13T02:47:18.432Z,6.48
2019-05-13T02:49:48.510Z,6.47
2019-05-13T02:52:22.251Z,6.45
2019-05-13T02:54:52.756Z,6.43
2019-05-13T02:59:52.823Z,6.39
2019-05-13T03:02:22.939Z,6.36
2019-05-13T03:04:52.901Z,6.35
2019-05-13T03:07:23.492Z,6.32
2019-05-13T03:09:54.741Z,6.28
2019-05-13T03:12:24.842Z,6.24
2019-05-13T03:14:54.764Z,6.20
2019-05-13T03:17:32.702Z,6.19
2019-05-13T03:20:04.870Z,6.15
2019-05-13T03:22:35.420Z,6.13
2019-05-13T03:25:05.957Z,6.10
2019-05-13T03:27:36.361Z,6.09
2019-05-13T03:30:07.359Z,6.08
2019-05-13T03:32:44.531Z,6.07
2019-05-13T03:35:09.448Z,6.10
2019-05-13T03:37:42.343Z,6.11
2019-05-13T03:40:13.531Z,6.05
2019-05-13T03:42:45.824Z,6.04
2019-05-13T03:45:16.217Z,6.03
2019-05-13T03:47:49.064Z,5.99
2019-05-13T03:50:22.336Z,5.99
2019-05-13T03:52:52.517Z,6.02
2019-05-13T03:55:23.633Z,6.03
2019-05-13T03:57:53.774Z,5.87
2019-05-13T04:00:23.898Z,6.09
2019-05-13T04:02:54.270Z,6.11
2019-05-13T04:05:24.491Z,6.13
2019-05-13T04:07:54.649Z,6.16
2019-05-13T04:10:24.625Z,6.18
2019-05-13T04:12:54.846Z,6.21
2019-05-13T04:15:24.970Z,6.22
2019-05-13T04:17:55.083Z,6.22
2019-05-13T04:20:29.506Z,6.24
2019-05-13T04:23:02.974Z,6.28
2019-05-13T04:25:32.501Z,6.29
2019-05-13T04:28:03.742Z,6.31
2019-05-13T04:30:33.928Z,6.32
2019-05-13T04:33:04.257Z,5.69
2019-05-13T04:35:35.313Z,6.37
2019-05-13T04:38:09.176Z,6.42
2019-05-13T04:40:38.245Z,6.47
2019-05-13T04:43:08.377Z,6.50
2019-05-13T04:45:38.496Z,6.50
2019-05-13T04:48:12.587Z,6.56
2019-05-13T04:50:43.188Z,6.62
2019-05-13T04:53:13.871Z,6.62
2019-05-13T04:55:44.999Z,6.67
2019-05-13T04:58:15.210Z,6.73
2019-05-13T05:01:24.663Z,6.78
2019-05-13T05:04:13.885Z,6.81
2019-05-13T05:06:55.674Z,6.84
2019-05-13T05:09:23.466Z,6.90
2019-05-13T05:12:38.887Z,6.89
2019-05-13T05:15:41.888Z,6.91
2019-05-13T05:18:57.530Z,6.90
2019-05-13T05:21:32.174Z,6.91
2019-05-13T05:24:37.316Z,7.03
2019-05-13T05:27:54.067Z,7.13
2019-05-13T05:31:11.394Z,7.21
2019-05-13T05:34:14.528Z,7.34
2019-05-13T05:37:35.887Z,7.46
2019-05-13T05:40:06.270Z,7.48
2019-05-13T05:42:38.022Z,7.47
2019-05-13T05:45:13.406Z,7.49
2019-05-13T05:47:45.132Z,7.55
2019-05-13T05:50:15.221Z,7.50
2019-05-13T05:52:47.026Z,7.51
2019-05-13T05:55:16.979Z,7.72
2019-05-13T05:57:48.128Z,7.80
2019-05-13T06:00:18.553Z,7.91
2019-05-13T06:02:52.971Z,7.90
2019-05-13T06:05:22.858Z,7.97
2019-05-13T06:07:52.974Z,7.97
2019-05-13T06:10:23.168Z,8.12
2019-05-13T06:12:54.835Z,8.15
2019-05-13T06:15:25.727Z,8.15
2019-05-13T06:17:55.820Z,8.21
2019-05-13T06:20:25.952Z,8.17
2019-05-13T06:22:56.800Z,8.17
2019-05-13T06:25:26.869Z,8.19
2019-05-13T06:27:56.891Z,8.43
2019-05-13T06:30:27.944Z,8.71
2019-05-13T06:32:58.067Z,8.71
2019-05-13T06:35:28.017Z,8.85
2019-05-13T06:37:58.595Z,8.95
2019-05-13T06:40:28.697Z,8.95
2019-05-13T06:43:01.475Z,9.07
2019-05-13T06:45:34.158Z,9.06
2019-05-13T06:48:05.196Z,9.19
2019-05-13T06:50:35.792Z,9.16
2019-05-13T06:53:08.407Z,9.21
2019-05-13T06:55:37.706Z,9.42
2019-05-13T06:58:07.745Z,9.59
2019-05-13T07:00:37.977Z,9.69
2019-05-13T07:03:08.136Z,9.84
2019-05-13T07:05:38.410Z,9.91
2019-05-13T07:08:08.534Z,9.88
2019-05-13T07:10:38.552Z,10.01
2019-05-13T07:13:08.486Z,10.00
2019-05-13T07:15:41.640Z,10.10
2019-05-13T07:18:11.960Z,10.32
2019-05-13T07:20:42.840Z,10.49
2019-05-13T07:23:12.908Z,10.69
2019-05-13T07:25:42.798Z,10.51
2019-05-13T07:28:12.934Z,10.73
2019-05-13T07:30:46.024Z,10.79
2019-05-13T07:33:16.175Z,10.83
2019-05-13T07:35:58.281Z,10.85
2019-05-13T07:38:26.755Z,10.95
2019-05-13T07:41:02.105Z,11.07
2019-05-13T07:43:32.275Z,11.15
2019-05-13T07:46:02.425Z,11.25
2019-05-13T07:48:32.468Z,11.36
2019-05-13T07:51:04.490Z,11.34
2019-05-13T07:53:35.150Z,11.31
2019-05-13T07:56:06.797Z,11.42
2019-05-13T07:58:37.791Z,11.63
2019-05-13T08:01:08.242Z,11.89
2019-05-13T08:03:38.285Z,12.02
2019-05-13T08:06:08.552Z,12.05
2019-05-13T08:08:38.469Z,11.99
2019-05-13T08:11:08.590Z,12.00
2019-05-13T08:13:38.727Z,12.09
2019-05-13T08:16:12.284Z,12.24
2019-05-13T08:18:43.933Z,12.32
2019-05-13T08:21:14.243Z,12.30
2019-05-13T08:23:44.757Z,12.50
2019-05-13T08:26:17.584Z,12.59
2019-05-13T08:29:00.192Z,12.76
2019-05-13T08:31:21.786Z,12.66
2019-05-13T08:33:52.038Z,12.84
2019-05-13T08:36:25.257Z,12.73
2019-05-13T08:38:55.278Z,12.47
2019-05-13T08:41:25.179Z,12.54
2019-05-13T08:43:56.004Z,12.68
2019-05-13T08:46:26.417Z,12.93
2019-05-13T08:48:56.485Z,12.68
2019-05-13T08:51:31.287Z,12.61
2019-05-13T08:54:02.235Z,12.78
2019-05-13T08:56:32.603Z,12.89
2019-05-13T08:59:02.746Z,12.99
2019-05-13T09:01:32.690Z,12.18
2019-05-13T09:04:03.705Z,12.93
2019-05-13T09:06:38.691Z,13.17
2019-05-13T09:09:11.529Z,13.26
2019-05-13T09:11:42.292Z,13.36
2019-05-13T09:14:12.538Z,13.49
2019-05-13T09:16:42.821Z,13.35
2019-05-13T09:19:16.083Z,13.36
2019-05-13T09:21:44.728Z,13.35
2019-05-13T09:24:25.423Z,13.29
2019-05-13T09:26:46.437Z,13.48
2019-05-13T09:29:16.350Z,13.72
2019-05-13T09:31:46.460Z,13.79
2019-05-13T09:34:16.781Z,13.93
2019-05-13T09:36:46.804Z,14.00
2019-05-13T09:39:18.212Z,14.10
2019-05-13T09:41:48.230Z,14.15
2019-05-13T09:44:18.312Z,14.05
2019-05-13T09:46:48.381Z,13.94
2019-05-13T09:49:20.029Z,14.04
2019-05-13T09:51:52.325Z,14.18
2019-05-13T09:54:22.416Z,14.40
2019-05-13T09:56:52.722Z,14.52
2019-05-13T09:59:23.038Z,14.63
2019-05-13T10:02:03.054Z,14.14
2019-05-13T10:04:32.881Z,14.73
2019-05-13T10:07:04.623Z,14.72
2019-05-13T10:09:38.014Z,14.76
2019-05-13T10:12:12.079Z,14.87
2019-05-13T10:14:42.574Z,15.04
2019-05-13T10:17:15.561Z,15.28
2019-05-13T10:19:46.570Z,15.47
2019-05-13T10:22:17.118Z,15.73
2019-05-13T10:24:47.425Z,15.92
2019-05-13T10:27:19.006Z,16.12
2019-05-13T10:29:51.791Z,16.37
2019-05-13T10:32:22.358Z,16.63
2019-05-13T10:34:57.098Z,16.86
2019-05-13T10:37:27.512Z,16.95
2019-05-13T10:39:57.707Z,17.10
2019-05-13T10:42:27.925Z,16.93
2019-05-13T10:44:58.461Z,16.80
2019-05-13T10:47:28.473Z,16.86
2019-05-13T10:49:58.586Z,16.82
2019-05-13T10:52:28.765Z,16.65
2019-05-13T10:55:01.953Z,16.73
2019-05-13T10:57:32.116Z,16.60
2019-05-13T11:00:05.079Z,16.53
2019-05-13T11:02:35.422Z,16.49
2019-05-13T11:05:07.684Z,16.34
2019-05-13T11:07:37.674Z,16.37
2019-05-13T11:10:08.750Z,16.20
2019-05-13T11:12:41.743Z,16.33
2019-05-13T11:15:11.914Z,16.46
2019-05-13T11:17:42.834Z,16.50
2019-05-13T11:20:13.609Z,16.43
2019-05-13T11:22:44.163Z,16.62
2019-05-13T11:25:15.823Z,16.69
2019-05-13T11:27:46.276Z,16.61
2019-05-13T11:30:16.880Z,16.69
2019-05-13T11:32:51.676Z,16.59
2019-05-13T11:35:23.610Z,16.58
2019-05-13T11:37:56.026Z,16.57
2019-05-13T11:40:31.801Z,16.69
2019-05-13T11:43:01.864Z,16.89
2019-05-13T11:45:32.718Z,16.91
2019-05-13T11:48:03.310Z,16.98
2019-05-13T11:50:42.167Z,17.08
2019-05-13T11:53:31.493Z,17.13
2019-05-13T11:55:44.350Z,17.09
2019-05-13T11:58:14.452Z,17.05
2019-05-13T12:00:53.599Z,17.07
2019-05-13T12:03:24.201Z,17.26
2019-05-13T12:05:54.474Z,17.26
2019-05-13T12:08:25.174Z,17.30
2019-05-13T12:10:55.274Z,17.37
2019-05-13T12:13:25.268Z,17.44
2019-05-13T12:15:55.890Z,17.67
2019-05-13T12:18:27.026Z,17.84
2019-05-13T12:20:58.186Z,17.87
2019-05-13T12:23:28.312Z,17.79
2019-05-13T12:25:58.542Z,17.88
2019-05-13T12:28:28.938Z,17.64
2019-05-13T12:31:03.253Z,17.43
2019-05-13T12:33:33.322Z,17.40
2019-05-13T12:36:03.751Z,17.50
2019-05-13T12:38:35.536Z,17.71
2019-05-13T12:41:05.835Z,17.73
2019-05-13T12:43:36.873Z,17.95
2019-05-13T12:46:07.462Z,17.95
2019-05-13T12:48:38.137Z,17.96
2019-05-13T12:51:13.293Z,18.12
2019-05-13T12:53:43.620Z,18.25
2019-05-13T12:56:13.947Z,18.27
2019-05-13T12:58:44.681Z,18.13
2019-05-13T13:01:15.879Z,17.93
2019-05-13T13:03:49.186Z,17.98
2019-05-13T13:06:31.167Z,18.11
2019-05-13T13:08:54.360Z,18.31
2019-05-13T13:11:27.738Z,18.16
2019-05-13T13:14:05.762Z,18.14
2019-05-13T13:16:42.141Z,18.13
2019-05-13T13:19:14.770Z,18.23
2019-05-13T13:21:45.573Z,18.31
2019-05-13T13:24:18.490Z,18.43
2019-05-13T13:26:53.888Z,18.42
2019-05-13T13:29:43.103Z,18.60
2019-05-13T13:32:14.422Z,18.63
2019-05-13T13:34:54.610Z,18.65
2019-05-13T13:37:23.589Z,18.59
2019-05-13T13:39:56.343Z,18.41
2019-05-13T13:42:32.174Z,18.50
2019-05-13T13:45:06.042Z,18.62
2019-05-13T13:47:36.169Z,18.86
2019-05-13T13:50:11.782Z,19.13
2019-05-13T13:52:45.607Z,19.47
2019-05-13T13:55:16.253Z,19.63
2019-05-13T13:57:46.654Z,19.47
2019-05-13T14:00:32.719Z,18.90
2019-05-13T14:02:54.088Z,19.10
2019-05-13T14:05:24.585Z,19.06
2019-05-13T14:07:54.581Z,18.96
2019-05-13T14:10:24.979Z,18.87
2019-05-13T14:13:01.269Z,18.91
2019-05-13T14:15:34.477Z,19.01
2019-05-13T14:18:05.373Z,19.33
2019-05-13T14:20:36.532Z,19.69
2019-05-13T14:23:12.463Z,19.58
2019-05-13T14:25:42.256Z,19.43
2019-05-13T14:28:17.477Z,19.27
2019-05-13T14:30:45.861Z,19.23
2019-05-13T14:33:16.024Z,19.07
2019-05-13T14:35:46.220Z,19.11
2019-05-13T14:38:16.498Z,18.44
2019-05-13T14:40:46.941Z,18.91
2019-05-13T14:43:17.769Z,19.21
2019-05-13T14:45:52.098Z,19.43
2019-05-13T14:48:22.741Z,19.51
2019-05-13T14:50:54.987Z,19.63
2019-05-13T14:53:26.001Z,19.71
2019-05-13T14:56:02.635Z,19.49
2019-05-13T14:58:32.789Z,19.35
2019-05-13T15:01:15.911Z,19.31
2019-05-13T15:03:37.371Z,19.29
2019-05-13T15:06:08.938Z,19.29
2019-05-13T15:08:42.193Z,19.28
2019-05-13T15:11:12.827Z,19.34
2019-05-13T15:13:43.055Z,19.33
2019-05-13T15:16:13.529Z,19.58
2019-05-13T15:18:44.106Z,19.78
2019-05-13T15:21:14.670Z,19.61
2019-05-13T15:23:45.095Z,19.23
2019-05-13T15:26:15.320Z,18.97
2019-05-13T15:28:45.446Z,18.79
2019-05-13T15:31:17.311Z,19.01
2019-05-13T15:33:48.027Z,19.32
2019-05-13T15:36:18.525Z,19.58
2019-05-13T15:38:51.385Z,19.68
2019-05-13T15:41:22.622Z,19.52
2019-05-13T15:43:53.606Z,19.29
2019-05-13T15:46:27.282Z,19.02
2019-05-13T15:48:58.417Z,18.83
2019-05-13T15:51:32.762Z,18.59
2019-05-13T15:54:03.330Z,18.75
2019-05-13T15:56:34.258Z,19.15
2019-05-13T15:59:08.723Z,19.49
2019-05-13T16:01:37.851Z,20.20
2019-05-13T16:04:09.229Z,20.85
2019-05-13T16:06:41.874Z,21.03
2019-05-13T16:09:16.044Z,21.00
2019-05-13T16:11:46.910Z,20.72
2019-05-13T16:14:18.900Z,20.38
2019-05-13T16:16:50.236Z,20.04
2019-05-13T16:19:22.045Z,19.77
2019-05-13T16:21:54.629Z,19.39
2019-05-13T16:24:58.497Z,19.44
2019-05-13T16:27:05.894Z,19.73
2019-05-13T16:29:38.954Z,20.19
2019-05-13T16:32:11.998Z,20.64
2019-05-13T16:34:42.846Z,20.93
2019-05-13T16:37:16.840Z,21.38
2019-05-13T16:39:47.774Z,21.71
2019-05-13T16:42:22.256Z,22.13
2019-05-13T16:44:52.396Z,22.24
2019-05-13T16:47:22.784Z,22.53
2019-05-13T16:49:53.853Z,22.66
2019-05-13T16:52:25.354Z,22.74
2019-05-13T16:55:02.583Z,22.71
2019-05-13T16:57:37.301Z,22.61
2019-05-13T17:00:15.019Z,22.35
2019-05-13T17:02:48.557Z,22.01
2019-05-13T17:05:21.305Z,21.80
2019-05-13T17:07:52.165Z,21.66
2019-05-13T17:10:25.120Z,21.20
2019-05-13T17:12:55.905Z,20.85
2019-05-13T17:15:26.731Z,20.51
2019-05-13T17:18:09.324Z,20.26
2019-05-13T17:20:32.092Z,19.90
2019-05-13T17:23:04.377Z,19.63
2019-05-13T17:25:46.907Z,19.32
2019-05-13T17:28:17.541Z,18.93
2019-05-13T17:30:48.735Z,18.83
2019-05-13T17:33:22.892Z,18.68
2019-05-13T17:35:53.075Z,18.46
2019-05-13T17:38:25.552Z,18.27
2019-05-13T17:40:56.886Z,18.18
2019-05-13T17:43:32.197Z,17.98
2019-05-13T17:46:17.518Z,17.85
2019-05-13T17:48:46.411Z,17.68
2019-05-13T17:51:22.345Z,17.57
2019-05-13T17:54:01.394Z,16.95
2019-05-13T17:56:35.699Z,17.23
2019-05-13T17:59:15.989Z,17.04
2019-05-13T18:01:55.370Z,16.79
2019-05-13T18:04:32.432Z,16.55
2019-05-13T18:07:12.758Z,16.46
2019-05-13T18:09:53.209Z,16.32
2019-05-13T18:12:28.521Z,16.16
2019-05-13T18:15:11.527Z,16.02
2019-05-13T18:17:52.157Z,15.89
2019-05-13T18:20:33.489Z,15.77
2019-05-13T18:23:08.119Z,15.62
2019-05-13T18:25:42.342Z,15.48
2019-05-13T18:28:27.470Z,15.41
2019-05-13T18:30:52.957Z,15.28
2019-05-13T18:33:31.973Z,15.12
2019-05-13T18:36:25.931Z,15.04
2019-05-13T18:39:01.560Z,14.98
2019-05-13T18:41:47.628Z,14.82
2019-05-13T18:44:23.072Z,14.82
2019-05-13T18:47:01.740Z,14.77
2019-05-13T18:49:38.972Z,14.69
2019-05-13T18:52:11.992Z,14.64
2019-05-13T18:54:51.242Z,14.55
2019-05-13T18:57:25.832Z,14.45
2019-05-13T19:00:05.135Z,14.38
2019-05-13T19:02:36.692Z,14.31
2019-05-13T19:05:11.681Z,14.22
2019-05-13T19:07:43.793Z,14.09
2019-05-13T19:10:18.210Z,14.00
2019-05-13T19:12:52.485Z,13.89
2019-05-13T19:15:28.187Z,13.79
2019-05-13T19:17:59.024Z,13.69
2019-05-13T19:20:37.500Z,13.60
2019-05-13T19:23:13.653Z,13.50
2019-05-13T19:25:47.221Z,13.40
2019-05-13T19:28:22.132Z,12.66
2019-05-13T19:30:56.864Z,13.21
2019-05-13T19:33:32.267Z,13.13
2019-05-13T19:36:06.610Z,13.05
2019-05-13T19:38:42.113Z,12.98
2019-05-13T19:41:15.244Z,12.92
2019-05-13T19:43:50.981Z,12.85
2019-05-13T19:46:25.854Z,12.77
2019-05-13T19:49:04.289Z,12.68
2019-05-13T19:51:35.970Z,12.59
2019-05-13T19:54:17.375Z,12.50
2019-05-13T19:56:48.578Z,12.43
2019-05-13T19:59:22.711Z,12.35
2019-05-13T20:01:55.592Z,12.26
2019-05-13T20:04:27.655Z,12.20
2019-05-13T20:07:05.806Z,12.15
2019-05-13T20:09:42.562Z,12.08
2019-05-13T20:12:15.983Z,12.02
2019-05-13T20:14:48.895Z,11.96
2019-05-13T20:17:20.646Z,11.91
2019-05-13T20:19:53.666Z,11.84
2019-05-13T20:22:24.823Z,11.78
2019-05-13T20:24:55.574Z,11.73
2019-05-13T20:27:27.433Z,11.68
2019-05-13T20:29:57.827Z,11.62
2019-05-13T20:32:30.958Z,11.59
2019-05-13T20:35:02.284Z,11.52
2019-05-13T20:37:32.607Z,11.46
2019-05-13T20:40:08.044Z,11.40
2019-05-13T20:42:38.339Z,11.34
2019-05-13T20:45:11.436Z,11.29
2019-05-13T20:47:42.219Z,11.24
2019-05-13T20:50:15.102Z,11.22
2019-05-13T20:52:46.032Z,11.21
2019-05-13T20:55:17.349Z,11.19
2019-05-13T20:57:53.735Z,11.16
2019-05-13T21:00:24.576Z,11.12
2019-05-13T21:02:54.959Z,11.09
2019-05-13T21:05:25.547Z,11.06
2019-05-13T21:07:57.443Z,11.01
2019-05-13T21:10:31.468Z,10.34
2019-05-13T21:13:03.710Z,10.96
2019-05-13T21:15:34.540Z,10.92
2019-05-13T21:18:06.002Z,10.86
2019-05-13T21:20:37.561Z,10.89
2019-05-13T21:23:11.262Z,10.84
2019-05-13T21:25:42.017Z,10.86
2019-05-13T21:28:12.739Z,10.83
2019-05-13T21:30:43.918Z,10.80
2019-05-13T21:33:14.811Z,10.12
2019-05-13T21:35:45.242Z,10.73
2019-05-13T21:38:15.770Z,10.69
2019-05-13T21:40:48.520Z,10.61
2019-05-13T21:43:21.409Z,10.57
2019-05-13T21:45:52.344Z,10.54
2019-05-13T21:48:22.621Z,10.50
2019-05-13T21:50:53.020Z,10.44
2019-05-13T21:53:24.494Z,10.42
2019-05-13T21:55:54.749Z,10.41
2019-05-13T21:58:25.060Z,10.36
2019-05-13T22:00:56.491Z,10.30
2019-05-13T22:03:27.675Z,10.30
2019-05-13T22:05:57.719Z,10.26
2019-05-13T22:08:27.812Z,10.26
2019-05-13T22:10:58.139Z,10.13
2019-05-13T22:13:31.356Z,10.09
2019-05-13T22:16:01.792Z,10.08
2019-05-13T22:18:32.029Z,10.11
2019-05-13T22:21:03.226Z,10.11
2019-05-13T22:23:33.353Z,10.11
2019-05-13T22:26:03.744Z,10.02
2019-05-13T22:28:33.859Z,9.95
2019-05-13T22:31:04.408Z,9.95
2019-05-13T22:33:34.557Z,9.90
2019-05-13T22:36:05.866Z,9.81
2019-05-13T22:38:38.591Z,9.88
2019-05-13T22:41:08.770Z,9.75
2019-05-13T22:43:52.315Z,9.76
2019-05-13T22:46:13.904Z,9.77
2019-05-13T22:48:43.394Z,9.74
2019-05-13T22:51:13.971Z,9.78
2019-05-13T22:53:43.882Z,9.70
2019-05-13T22:56:14.098Z,9.71
2019-05-13T22:58:44.412Z,9.71
2019-05-13T23:01:14.560Z,9.68
2019-05-13T23:03:44.672Z,9.36
2019-05-13T23:06:14.847Z,9.51
2019-05-13T23:08:45.073Z,9.47
2019-05-13T23:11:15.059Z,9.47
2019-05-13T23:13:45.747Z,9.43
2019-05-13T23:16:16.402Z,9.43
2019-05-13T23:18:51.327Z,9.36
2019-05-13T23:21:21.843Z,9.32
2019-05-13T23:23:51.922Z,9.32
2019-05-13T23:26:23.731Z,9.30
2019-05-13T23:28:53.655Z,9.23
2019-05-13T23:31:24.759Z,9.29
2019-05-13T23:33:54.761Z,9.29
2019-05-13T23:36:25.173Z,9.11
2019-05-13T23:38:55.352Z,8.48
2019-05-13T23:41:25.304Z,9.13
2019-05-13T23:43:55.573Z,9.13
2019-05-13T23:46:25.507Z,9.13
2019-05-13T23:48:56.622Z,9.23
2019-05-13T23:51:26.506Z,9.37
2019-05-13T23:53:56.528Z,9.37
2019-05-13T23:56:27.055Z,9.49
2019-05-13T23:58:57.925Z,9.49
